sensor_id;sensor_type;location;lat;lon;timestamp;P1;durP1;ratioP1;P2;durP2;ratioP2
42018;SDS011;27703;51.980;5.848;2023-04-24T00:00:23;5.47;;;4.32;;
42018;SDS011;27703;51.980;5.848;2023-04-24T00:02:49;5.13;;;4.63;;
42018;SDS011;27703;51.980;5.848;2023-04-24T00:05:15;5.70;;;4.10;;
42018;SDS011;27703;51.980;5.848;2023-04-24T00:07:42;6.40;;;4.45;;
42018;SDS011;27703;51.980;5.848;2023-04-24T00:10:09;5.72;;;4.53;;
42018;SDS011;27703;51.980;5.848;2023-04-24T00:12:34;3.83;;;3.53;;
42018;SDS011;27703;51.980;5.848;2023-04-24T00:15:00;4.82;;;4.43;;
42018;SDS011;27703;51.980;5.848;2023-04-24T00:17:26;8.65;;;4.18;;
42018;SDS011;27703;51.980;5.848;2023-04-24T00:19:51;4.40;;;3.78;;
42018;SDS011;27703;51.980;5.848;2023-04-24T00:24:52;3.35;;;3.05;;
42018;SDS011;27703;51.980;5.848;2023-04-24T00:27:18;2.65;;;2.20;;
42018;SDS011;27703;51.980;5.848;2023-04-24T00:29:44;2.72;;;1.70;;
42018;SDS011;27703;51.980;5.848;2023-04-24T00:32:09;4.70;;;2.40;;
42018;SDS011;27703;51.980;5.848;2023-04-24T00:34:35;2.38;;;1.17;;
42018;SDS011;27703;51.980;5.848;2023-04-24T00:37:01;1.48;;;0.63;;
42018;SDS011;27703;51.980;5.848;2023-04-24T00:39:26;1.10;;;0.65;;
42018;SDS011;27703;51.980;5.848;2023-04-24T00:41:52;1.58;;;0.90;;
42018;SDS011;27703;51.980;5.848;2023-04-24T00:44:18;1.58;;;1.13;;
42018;SDS011;27703;51.980;5.848;2023-04-24T00:46:44;1.42;;;1.00;;
42018;SDS011;27703;51.980;5.848;2023-04-24T00:49:12;3.15;;;1.00;;
42018;SDS011;27703;51.980;5.848;2023-04-24T00:51:38;2.10;;;1.38;;
42018;SDS011;27703;51.980;5.848;2023-04-24T00:54:05;2.92;;;1.73;;
42018;SDS011;27703;51.980;5.848;2023-04-24T00:56:31;4.40;;;2.85;;
42018;SDS011;27703;51.980;5.848;2023-04-24T00:58:56;3.67;;;2.30;;
42018;SDS011;27703;51.980;5.848;2023-04-24T01:01:23;2.78;;;2.55;;
42018;SDS011;27703;51.980;5.848;2023-04-24T01:03:49;3.95;;;2.38;;
42018;SDS011;27703;51.980;5.848;2023-04-24T01:06:16;3.05;;;2.67;;
42018;SDS011;27703;51.980;5.848;2023-04-24T01:08:42;5.25;;;4.47;;
42018;SDS011;27703;51.980;5.848;2023-04-24T01:11:10;6.70;;;4.75;;
42018;SDS011;27703;51.980;5.848;2023-04-24T01:13:36;7.78;;;6.28;;
42018;SDS011;27703;51.980;5.848;2023-04-24T01:16:01;7.38;;;6.40;;
42018;SDS011;27703;51.980;5.848;2023-04-24T01:18:27;10.93;;;9.75;;
42018;SDS011;27703;51.980;5.848;2023-04-24T01:20:53;15.45;;;10.73;;
42018;SDS011;27703;51.980;5.848;2023-04-24T01:23:23;15.85;;;10.82;;
42018;SDS011;27703;51.980;5.848;2023-04-24T01:25:48;16.15;;;12.88;;
42018;SDS011;27703;51.980;5.848;2023-04-24T01:28:14;19.23;;;12.40;;
42018;SDS011;27703;51.980;5.848;2023-04-24T01:30:41;15.18;;;11.50;;
42018;SDS011;27703;51.980;5.848;2023-04-24T01:33:07;17.60;;;11.32;;
42018;SDS011;27703;51.980;5.848;2023-04-24T01:35:32;16.23;;;10.07;;
42018;SDS011;27703;51.980;5.848;2023-04-24T01:37:59;14.23;;;9.98;;
42018;SDS011;27703;51.980;5.848;2023-04-24T01:40:25;13.43;;;8.63;;
42018;SDS011;27703;51.980;5.848;2023-04-24T01:42:50;11.15;;;8.05;;
42018;SDS011;27703;51.980;5.848;2023-04-24T01:45:16;9.02;;;6.55;;
42018;SDS011;27703;51.980;5.848;2023-04-24T01:47:42;6.95;;;5.65;;
42018;SDS011;27703;51.980;5.848;2023-04-24T01:50:08;7.22;;;5.55;;
42018;SDS011;27703;51.980;5.848;2023-04-24T01:52:34;8.48;;;6.82;;
42018;SDS011;27703;51.980;5.848;2023-04-24T01:55:01;7.05;;;6.07;;
42018;SDS011;27703;51.980;5.848;2023-04-24T01:57:30;6.43;;;5.15;;
42018;SDS011;27703;51.980;5.848;2023-04-24T01:59:56;8.75;;;6.57;;
42018;SDS011;27703;51.980;5.848;2023-04-24T02:02:22;9.77;;;7.35;;
42018;SDS011;27703;51.980;5.848;2023-04-24T02:04:55;14.05;;;9.02;;
42018;SDS011;27703;51.980;5.848;2023-04-24T02:07:21;10.18;;;8.43;;
42018;SDS011;27703;51.980;5.848;2023-04-24T02:09:47;13.43;;;8.48;;
42018;SDS011;27703;51.980;5.848;2023-04-24T02:12:14;11.68;;;8.38;;
42018;SDS011;27703;51.980;5.848;2023-04-24T02:14:40;12.68;;;9.57;;
42018;SDS011;27703;51.980;5.848;2023-04-24T02:17:07;20.35;;;10.75;;
42018;SDS011;27703;51.980;5.848;2023-04-24T02:19:32;16.63;;;11.52;;
42018;SDS011;27703;51.980;5.848;2023-04-24T02:21:58;20.38;;;12.90;;
42018;SDS011;27703;51.980;5.848;2023-04-24T02:24:24;19.52;;;12.55;;
42018;SDS011;27703;51.980;5.848;2023-04-24T02:26:49;19.33;;;12.27;;
42018;SDS011;27703;51.980;5.848;2023-04-24T02:29:15;17.83;;;13.30;;
42018;SDS011;27703;51.980;5.848;2023-04-24T02:31:40;31.27;;;20.98;;
42018;SDS011;27703;51.980;5.848;2023-04-24T02:34:06;32.85;;;24.30;;
42018;SDS011;27703;51.980;5.848;2023-04-24T02:36:32;33.38;;;24.58;;
42018;SDS011;27703;51.980;5.848;2023-04-24T02:38:57;32.10;;;23.25;;
42018;SDS011;27703;51.980;5.848;2023-04-24T02:41:23;34.80;;;24.90;;
42018;SDS011;27703;51.980;5.848;2023-04-24T02:43:48;30.60;;;22.05;;
42018;SDS011;27703;51.980;5.848;2023-04-24T02:46:14;31.52;;;22.52;;
42018;SDS011;27703;51.980;5.848;2023-04-24T02:48:40;32.58;;;23.58;;
42018;SDS011;27703;51.980;5.848;2023-04-24T02:51:05;32.13;;;23.35;;
42018;SDS011;27703;51.980;5.848;2023-04-24T02:53:31;35.65;;;24.55;;
42018;SDS011;27703;51.980;5.848;2023-04-24T02:55:57;35.13;;;24.17;;
42018;SDS011;27703;51.980;5.848;2023-04-24T02:58:23;34.80;;;24.95;;
42018;SDS011;27703;51.980;5.848;2023-04-24T03:00:48;35.28;;;24.73;;
42018;SDS011;27703;51.980;5.848;2023-04-24T03:03:17;34.45;;;21.75;;
42018;SDS011;27703;51.980;5.848;2023-04-24T03:05:43;30.15;;;21.73;;
42018;SDS011;27703;51.980;5.848;2023-04-24T03:08:09;27.42;;;19.00;;
42018;SDS011;27703;51.980;5.848;2023-04-24T03:10:35;27.50;;;19.00;;
42018;SDS011;27703;51.980;5.848;2023-04-24T03:13:00;29.80;;;19.40;;
42018;SDS011;27703;51.980;5.848;2023-04-24T03:15:26;29.85;;;20.25;;
42018;SDS011;27703;51.980;5.848;2023-04-24T03:17:51;28.55;;;20.58;;
42018;SDS011;27703;51.980;5.848;2023-04-24T03:20:17;30.10;;;20.33;;
42018;SDS011;27703;51.980;5.848;2023-04-24T03:22:43;32.95;;;22.50;;
42018;SDS011;27703;51.980;5.848;2023-04-24T03:25:08;32.65;;;22.20;;
42018;SDS011;27703;51.980;5.848;2023-04-24T03:27:34;30.10;;;21.23;;
42018;SDS011;27703;51.980;5.848;2023-04-24T03:30:00;30.10;;;21.15;;
42018;SDS011;27703;51.980;5.848;2023-04-24T03:32:26;28.23;;;21.45;;
42018;SDS011;27703;51.980;5.848;2023-04-24T03:34:51;30.75;;;23.33;;
42018;SDS011;27703;51.980;5.848;2023-04-24T03:37:17;35.38;;;24.20;;
42018;SDS011;27703;51.980;5.848;2023-04-24T03:39:42;35.58;;;25.23;;
42018;SDS011;27703;51.980;5.848;2023-04-24T03:42:08;35.25;;;25.83;;
42018;SDS011;27703;51.980;5.848;2023-04-24T03:44:34;40.47;;;26.85;;
42018;SDS011;27703;51.980;5.848;2023-04-24T03:47:00;36.45;;;26.92;;
42018;SDS011;27703;51.980;5.848;2023-04-24T03:49:26;38.83;;;29.52;;
42018;SDS011;27703;51.980;5.848;2023-04-24T03:51:52;43.72;;;29.25;;
42018;SDS011;27703;51.980;5.848;2023-04-24T03:54:18;50.78;;;32.55;;
42018;SDS011;27703;51.980;5.848;2023-04-24T03:56:44;41.08;;;28.73;;
42018;SDS011;27703;51.980;5.848;2023-04-24T03:59:10;48.50;;;33.85;;
42018;SDS011;27703;51.980;5.848;2023-04-24T04:01:35;51.40;;;33.15;;
42018;SDS011;27703;51.980;5.848;2023-04-24T04:04:03;49.08;;;36.35;;
42018;SDS011;27703;51.980;5.848;2023-04-24T04:06:29;55.75;;;37.35;;
42018;SDS011;27703;51.980;5.848;2023-04-24T04:08:55;61.90;;;40.60;;
42018;SDS011;27703;51.980;5.848;2023-04-24T04:11:21;50.20;;;36.20;;
42018;SDS011;27703;51.980;5.848;2023-04-24T04:13:47;51.80;;;36.28;;
42018;SDS011;27703;51.980;5.848;2023-04-24T04:16:13;54.45;;;37.00;;
42018;SDS011;27703;51.980;5.848;2023-04-24T04:18:41;51.00;;;34.55;;
42018;SDS011;27703;51.980;5.848;2023-04-24T04:21:07;45.88;;;32.80;;
42018;SDS011;27703;51.980;5.848;2023-04-24T04:23:32;47.88;;;33.50;;
42018;SDS011;27703;51.980;5.848;2023-04-24T04:25:58;46.95;;;32.92;;
42018;SDS011;27703;51.980;5.848;2023-04-24T04:28:24;54.38;;;31.85;;
42018;SDS011;27703;51.980;5.848;2023-04-24T04:30:49;44.17;;;31.95;;
42018;SDS011;27703;51.980;5.848;2023-04-24T04:33:18;47.55;;;32.40;;
42018;SDS011;27703;51.980;5.848;2023-04-24T04:35:45;44.67;;;31.33;;
42018;SDS011;27703;51.980;5.848;2023-04-24T04:38:13;44.30;;;32.13;;
42018;SDS011;27703;51.980;5.848;2023-04-24T04:40:40;43.15;;;31.20;;
42018;SDS011;27703;51.980;5.848;2023-04-24T04:43:06;40.67;;;29.20;;
42018;SDS011;27703;51.980;5.848;2023-04-24T04:45:31;43.13;;;28.90;;
42018;SDS011;27703;51.980;5.848;2023-04-24T04:47:59;39.28;;;28.60;;
42018;SDS011;27703;51.980;5.848;2023-04-24T04:50:25;44.95;;;30.48;;
42018;SDS011;27703;51.980;5.848;2023-04-24T04:52:51;38.88;;;29.23;;
42018;SDS011;27703;51.980;5.848;2023-04-24T04:55:17;39.72;;;29.40;;
42018;SDS011;27703;51.980;5.848;2023-04-24T04:57:44;44.92;;;30.02;;
42018;SDS011;27703;51.980;5.848;2023-04-24T05:00:11;37.08;;;28.23;;
42018;SDS011;27703;51.980;5.848;2023-04-24T05:02:37;38.85;;;26.85;;
42018;SDS011;27703;51.980;5.848;2023-04-24T05:05:03;41.97;;;30.45;;
42018;SDS011;27703;51.980;5.848;2023-04-24T05:07:30;37.72;;;28.58;;
42018;SDS011;27703;51.980;5.848;2023-04-24T05:09:56;40.65;;;27.85;;
42018;SDS011;27703;51.980;5.848;2023-04-24T05:12:21;35.30;;;26.38;;
42018;SDS011;27703;51.980;5.848;2023-04-24T05:14:47;42.58;;;29.02;;
42018;SDS011;27703;51.980;5.848;2023-04-24T05:17:12;38.00;;;25.83;;
42018;SDS011;27703;51.980;5.848;2023-04-24T05:19:38;31.65;;;24.77;;
42018;SDS011;27703;51.980;5.848;2023-04-24T05:22:03;35.22;;;24.98;;
42018;SDS011;27703;51.980;5.848;2023-04-24T05:24:31;33.88;;;25.17;;
42018;SDS011;27703;51.980;5.848;2023-04-24T05:27:00;32.22;;;23.08;;
42018;SDS011;27703;51.980;5.848;2023-04-24T05:29:27;42.47;;;24.80;;
42018;SDS011;27703;51.980;5.848;2023-04-24T05:31:55;30.25;;;22.40;;
42018;SDS011;27703;51.980;5.848;2023-04-24T05:34:21;25.90;;;20.35;;
42018;SDS011;27703;51.980;5.848;2023-04-24T05:36:46;24.25;;;18.52;;
42018;SDS011;27703;51.980;5.848;2023-04-24T05:39:12;22.40;;;17.48;;
42018;SDS011;27703;51.980;5.848;2023-04-24T05:41:38;21.20;;;15.48;;
42018;SDS011;27703;51.980;5.848;2023-04-24T05:44:04;21.88;;;14.90;;
42018;SDS011;27703;51.980;5.848;2023-04-24T05:46:30;23.15;;;14.55;;
42018;SDS011;27703;51.980;5.848;2023-04-24T05:48:55;16.13;;;11.98;;
42018;SDS011;27703;51.980;5.848;2023-04-24T05:51:21;15.13;;;10.20;;
42018;SDS011;27703;51.980;5.848;2023-04-24T05:53:46;16.75;;;12.55;;
42018;SDS011;27703;51.980;5.848;2023-04-24T05:56:12;15.80;;;11.80;;
42018;SDS011;27703;51.980;5.848;2023-04-24T05:58:38;14.57;;;10.55;;
42018;SDS011;27703;51.980;5.848;2023-04-24T06:01:04;14.30;;;11.40;;
42018;SDS011;27703;51.980;5.848;2023-04-24T06:03:30;15.57;;;11.63;;
42018;SDS011;27703;51.980;5.848;2023-04-24T06:05:56;16.00;;;12.27;;
42018;SDS011;27703;51.980;5.848;2023-04-24T06:08:22;14.88;;;10.85;;
42018;SDS011;27703;51.980;5.848;2023-04-24T06:10:47;13.43;;;10.13;;
42018;SDS011;27703;51.980;5.848;2023-04-24T06:13:13;11.07;;;8.32;;
42018;SDS011;27703;51.980;5.848;2023-04-24T06:15:38;12.23;;;8.93;;
42018;SDS011;27703;51.980;5.848;2023-04-24T06:18:04;13.48;;;9.55;;
42018;SDS011;27703;51.980;5.848;2023-04-24T06:20:30;14.70;;;9.15;;
42018;SDS011;27703;51.980;5.848;2023-04-24T06:22:55;12.95;;;10.02;;
42018;SDS011;27703;51.980;5.848;2023-04-24T06:25:21;14.98;;;8.98;;
42018;SDS011;27703;51.980;5.848;2023-04-24T06:27:46;11.52;;;8.88;;
42018;SDS011;27703;51.980;5.848;2023-04-24T06:30:12;12.85;;;8.85;;
42018;SDS011;27703;51.980;5.848;2023-04-24T06:32:39;12.70;;;8.50;;
42018;SDS011;27703;51.980;5.848;2023-04-24T06:35:05;11.00;;;7.78;;
42018;SDS011;27703;51.980;5.848;2023-04-24T06:37:32;11.68;;;7.65;;
42018;SDS011;27703;51.980;5.848;2023-04-24T06:39:58;9.73;;;7.80;;
42018;SDS011;27703;51.980;5.848;2023-04-24T06:42:24;10.07;;;7.15;;
42018;SDS011;27703;51.980;5.848;2023-04-24T06:44:49;8.68;;;6.60;;
42018;SDS011;27703;51.980;5.848;2023-04-24T06:47:15;8.52;;;6.13;;
42018;SDS011;27703;51.980;5.848;2023-04-24T06:49:41;8.73;;;5.00;;
42018;SDS011;27703;51.980;5.848;2023-04-24T06:52:07;5.82;;;4.45;;
42018;SDS011;27703;51.980;5.848;2023-04-24T06:54:32;5.38;;;4.30;;
42018;SDS011;27703;51.980;5.848;2023-04-24T06:56:58;4.65;;;3.13;;
42018;SDS011;27703;51.980;5.848;2023-04-24T06:59:25;4.40;;;3.00;;
42018;SDS011;27703;51.980;5.848;2023-04-24T07:01:52;4.57;;;3.50;;
42018;SDS011;27703;51.980;5.848;2023-04-24T07:04:17;3.65;;;2.67;;
42018;SDS011;27703;51.980;5.848;2023-04-24T07:06:44;3.83;;;1.98;;
42018;SDS011;27703;51.980;5.848;2023-04-24T07:09:11;3.28;;;1.35;;
42018;SDS011;27703;51.980;5.848;2023-04-24T07:11:38;2.42;;;1.35;;
42018;SDS011;27703;51.980;5.848;2023-04-24T07:14:05;2.47;;;1.55;;
42018;SDS011;27703;51.980;5.848;2023-04-24T07:16:31;2.47;;;1.20;;
42018;SDS011;27703;51.980;5.848;2023-04-24T07:18:56;3.15;;;1.40;;
42018;SDS011;27703;51.980;5.848;2023-04-24T07:21:22;1.55;;;0.70;;
42018;SDS011;27703;51.980;5.848;2023-04-24T07:23:47;3.38;;;0.95;;
42018;SDS011;27703;51.980;5.848;2023-04-24T07:26:13;2.35;;;0.60;;
42018;SDS011;27703;51.980;5.848;2023-04-24T07:28:39;2.60;;;0.60;;
42018;SDS011;27703;51.980;5.848;2023-04-24T07:31:05;0.95;;;0.43;;
42018;SDS011;27703;51.980;5.848;2023-04-24T07:33:31;2.85;;;0.50;;
42018;SDS011;27703;51.980;5.848;2023-04-24T07:35:57;1.10;;;0.40;;
42018;SDS011;27703;51.980;5.848;2023-04-24T07:38:23;1.00;;;0.40;;
42018;SDS011;27703;51.980;5.848;2023-04-24T07:40:50;2.88;;;0.60;;
42018;SDS011;27703;51.980;5.848;2023-04-24T07:43:16;2.58;;;1.00;;
42018;SDS011;27703;51.980;5.848;2023-04-24T07:45:42;3.35;;;1.10;;
42018;SDS011;27703;51.980;5.848;2023-04-24T07:48:07;3.28;;;1.10;;
42018;SDS011;27703;51.980;5.848;2023-04-24T07:50:34;2.25;;;1.13;;
42018;SDS011;27703;51.980;5.848;2023-04-24T07:53:01;4.03;;;2.03;;
42018;SDS011;27703;51.980;5.848;2023-04-24T07:55:27;5.55;;;2.67;;
42018;SDS011;27703;51.980;5.848;2023-04-24T07:57:52;5.88;;;3.65;;
42018;SDS011;27703;51.980;5.848;2023-04-24T08:00:18;10.20;;;5.30;;
42018;SDS011;27703;51.980;5.848;2023-04-24T08:02:44;6.13;;;4.65;;
42018;SDS011;27703;51.980;5.848;2023-04-24T08:05:10;9.98;;;4.80;;
42018;SDS011;27703;51.980;5.848;2023-04-24T08:07:36;7.95;;;5.93;;
42018;SDS011;27703;51.980;5.848;2023-04-24T08:10:01;9.45;;;6.55;;
42018;SDS011;27703;51.980;5.848;2023-04-24T08:12:30;10.10;;;6.10;;
42018;SDS011;27703;51.980;5.848;2023-04-24T08:14:56;10.45;;;7.20;;
42018;SDS011;27703;51.980;5.848;2023-04-24T08:17:21;13.57;;;7.57;;
42018;SDS011;27703;51.980;5.848;2023-04-24T08:19:47;17.88;;;9.38;;
42018;SDS011;27703;51.980;5.848;2023-04-24T08:22:13;14.32;;;7.45;;
42018;SDS011;27703;51.980;5.848;2023-04-24T08:24:39;13.38;;;7.47;;
42018;SDS011;27703;51.980;5.848;2023-04-24T08:27:05;9.05;;;7.00;;
42018;SDS011;27703;51.980;5.848;2023-04-24T08:29:31;9.38;;;6.25;;
42018;SDS011;27703;51.980;5.848;2023-04-24T08:31:57;11.32;;;7.28;;
42018;SDS011;27703;51.980;5.848;2023-04-24T08:34:22;13.52;;;6.85;;
42018;SDS011;27703;51.980;5.848;2023-04-24T08:36:48;8.52;;;6.30;;
42018;SDS011;27703;51.980;5.848;2023-04-24T08:39:14;11.50;;;6.53;;
42018;SDS011;27703;51.980;5.848;2023-04-24T08:41:41;11.27;;;6.20;;
42018;SDS011;27703;51.980;5.848;2023-04-24T08:44:08;10.25;;;7.07;;
42018;SDS011;27703;51.980;5.848;2023-04-24T08:46:34;10.48;;;6.85;;
42018;SDS011;27703;51.980;5.848;2023-04-24T08:49:01;13.15;;;7.32;;
42018;SDS011;27703;51.980;5.848;2023-04-24T08:51:28;17.60;;;9.13;;
42018;SDS011;27703;51.980;5.848;2023-04-24T08:53:55;11.10;;;7.20;;
42018;SDS011;27703;51.980;5.848;2023-04-24T08:56:22;9.02;;;6.15;;
42018;SDS011;27703;51.980;5.848;2023-04-24T08:58:49;14.43;;;6.63;;
42018;SDS011;27703;51.980;5.848;2023-04-24T09:01:16;12.32;;;6.72;;
42018;SDS011;27703;51.980;5.848;2023-04-24T09:03:43;7.40;;;4.75;;
42018;SDS011;27703;51.980;5.848;2023-04-24T09:06:10;9.32;;;4.07;;
42018;SDS011;27703;51.980;5.848;2023-04-24T09:08:36;7.03;;;2.85;;
42018;SDS011;27703;51.980;5.848;2023-04-24T09:11:04;7.18;;;2.50;;
42018;SDS011;27703;51.980;5.848;2023-04-24T09:13:30;6.65;;;2.67;;
42018;SDS011;27703;51.980;5.848;2023-04-24T09:15:56;8.88;;;2.40;;
42018;SDS011;27703;51.980;5.848;2023-04-24T09:18:22;11.30;;;2.90;;
42018;SDS011;27703;51.980;5.848;2023-04-24T09:20:56;8.93;;;2.38;;
42018;SDS011;27703;51.980;5.848;2023-04-24T09:23:30;8.15;;;1.50;;
42018;SDS011;27703;51.980;5.848;2023-04-24T09:25:57;7.60;;;1.58;;
42018;SDS011;27703;51.980;5.848;2023-04-24T09:28:26;12.98;;;2.30;;
42018;SDS011;27703;51.980;5.848;2023-04-24T09:31:02;8.13;;;2.30;;
42018;SDS011;27703;51.980;5.848;2023-04-24T09:33:29;17.77;;;1.80;;
42018;SDS011;27703;51.980;5.848;2023-04-24T09:35:54;11.27;;;1.77;;
42018;SDS011;27703;51.980;5.848;2023-04-24T09:38:30;11.63;;;2.67;;
42018;SDS011;27703;51.980;5.848;2023-04-24T09:40:58;9.93;;;1.75;;
42018;SDS011;27703;51.980;5.848;2023-04-24T09:43:26;7.53;;;1.67;;
42018;SDS011;27703;51.980;5.848;2023-04-24T09:45:53;11.20;;;1.63;;
42018;SDS011;27703;51.980;5.848;2023-04-24T09:48:29;8.27;;;1.55;;
42018;SDS011;27703;51.980;5.848;2023-04-24T09:50:59;12.50;;;1.40;;
42018;SDS011;27703;51.980;5.848;2023-04-24T09:53:26;12.20;;;1.35;;
42018;SDS011;27703;51.980;5.848;2023-04-24T09:55:52;11.57;;;1.40;;
42018;SDS011;27703;51.980;5.848;2023-04-24T09:58:18;13.20;;;1.50;;
42018;SDS011;27703;51.980;5.848;2023-04-24T10:03:18;6.63;;;1.27;;
42018;SDS011;27703;51.980;5.848;2023-04-24T10:05:44;7.53;;;1.20;;
42018;SDS011;27703;51.980;5.848;2023-04-24T10:08:12;8.43;;;1.20;;
42018;SDS011;27703;51.980;5.848;2023-04-24T10:10:41;9.02;;;1.35;;
42018;SDS011;27703;51.980;5.848;2023-04-24T10:13:09;7.97;;;1.40;;
42018;SDS011;27703;51.980;5.848;2023-04-24T10:15:35;13.02;;;1.33;;
42018;SDS011;27703;51.980;5.848;2023-04-24T10:18:02;12.10;;;0.98;;
42018;SDS011;27703;51.980;5.848;2023-04-24T10:20:31;9.07;;;1.40;;
42018;SDS011;27703;51.980;5.848;2023-04-24T10:22:57;9.82;;;0.75;;
42018;SDS011;27703;51.980;5.848;2023-04-24T10:25:25;5.90;;;0.88;;
42018;SDS011;27703;51.980;5.848;2023-04-24T10:27:52;12.93;;;1.35;;
42018;SDS011;27703;51.980;5.848;2023-04-24T10:30:22;10.05;;;1.23;;
42018;SDS011;27703;51.980;5.848;2023-04-24T10:32:48;9.23;;;1.35;;
42018;SDS011;27703;51.980;5.848;2023-04-24T10:35:15;6.47;;;1.08;;
42018;SDS011;27703;51.980;5.848;2023-04-24T10:40:16;7.43;;;0.90;;
42018;SDS011;27703;51.980;5.848;2023-04-24T10:42:46;8.60;;;0.82;;
42018;SDS011;27703;51.980;5.848;2023-04-24T10:45:16;5.82;;;0.75;;
42018;SDS011;27703;51.980;5.848;2023-04-24T10:47:50;1.80;;;0.60;;
42018;SDS011;27703;51.980;5.848;2023-04-24T10:50:17;7.60;;;0.93;;
42018;SDS011;27703;51.980;5.848;2023-04-24T10:52:49;7.47;;;0.70;;
42018;SDS011;27703;51.980;5.848;2023-04-24T10:58:07;5.30;;;0.88;;
42018;SDS011;27703;51.980;5.848;2023-04-24T11:00:32;3.72;;;0.80;;
42018;SDS011;27703;51.980;5.848;2023-04-24T11:03:04;5.47;;;0.68;;
42018;SDS011;27703;51.980;5.848;2023-04-24T11:06:23;5.82;;;0.50;;
42018;SDS011;27703;51.980;5.848;2023-04-24T11:08:53;4.40;;;0.50;;
42018;SDS011;27703;51.980;5.848;2023-04-24T11:11:29;3.20;;;0.40;;
42018;SDS011;27703;51.980;5.848;2023-04-24T11:16:28;2.40;;;0.38;;
42018;SDS011;27703;51.980;5.848;2023-04-24T11:19:36;3.63;;;0.30;;
42018;SDS011;27703;51.980;5.848;2023-04-24T11:27:06;4.15;;;0.50;;
42018;SDS011;27703;51.980;5.848;2023-04-24T11:29:40;4.93;;;0.40;;
42018;SDS011;27703;51.980;5.848;2023-04-24T11:32:23;1.92;;;0.20;;
42018;SDS011;27703;51.980;5.848;2023-04-24T11:34:52;3.28;;;0.28;;
42018;SDS011;27703;51.980;5.848;2023-04-24T11:39:56;2.78;;;0.20;;
42018;SDS011;27703;51.980;5.848;2023-04-24T11:42:23;1.65;;;0.10;;
42018;SDS011;27703;51.980;5.848;2023-04-24T11:44:51;2.25;;;0.20;;
42018;SDS011;27703;51.980;5.848;2023-04-24T11:47:18;2.30;;;0.32;;
42018;SDS011;27703;51.980;5.848;2023-04-24T11:49:43;0.75;;;0.20;;
42018;SDS011;27703;51.980;5.848;2023-04-24T11:52:09;1.45;;;0.15;;
42018;SDS011;27703;51.980;5.848;2023-04-24T11:54:35;4.60;;;0.50;;
42018;SDS011;27703;51.980;5.848;2023-04-24T11:57:03;2.97;;;0.20;;
42018;SDS011;27703;51.980;5.848;2023-04-24T11:59:34;1.63;;;0.20;;
42018;SDS011;27703;51.980;5.848;2023-04-24T12:02:01;1.70;;;0.30;;
42018;SDS011;27703;51.980;5.848;2023-04-24T12:04:27;3.08;;;0.35;;
42018;SDS011;27703;51.980;5.848;2023-04-24T12:07:04;0.80;;;0.20;;
42018;SDS011;27703;51.980;5.848;2023-04-24T12:09:43;3.20;;;1.10;;
42018;SDS011;27703;51.980;5.848;2023-04-24T12:12:15;2.83;;;0.30;;
42018;SDS011;27703;51.980;5.848;2023-04-24T12:14:45;1.45;;;0.10;;
42018;SDS011;27703;51.980;5.848;2023-04-24T12:17:15;3.38;;;0.10;;
42018;SDS011;27703;51.980;5.848;2023-04-24T12:19:45;1.98;;;0.10;;
42018;SDS011;27703;51.980;5.848;2023-04-24T12:22:12;2.13;;;0.20;;
42018;SDS011;27703;51.980;5.848;2023-04-24T12:24:55;3.17;;;0.30;;
42018;SDS011;27703;51.980;5.848;2023-04-24T12:27:21;1.38;;;0.10;;
42018;SDS011;27703;51.980;5.848;2023-04-24T12:29:55;1.40;;;0.17;;
42018;SDS011;27703;51.980;5.848;2023-04-24T12:32:21;2.65;;;0.43;;
42018;SDS011;27703;51.980;5.848;2023-04-24T12:34:47;0.90;;;0.13;;
42018;SDS011;27703;51.980;5.848;2023-04-24T12:37:14;3.20;;;0.10;;
42018;SDS011;27703;51.980;5.848;2023-04-24T12:39:39;1.88;;;0.10;;
42018;SDS011;27703;51.980;5.848;2023-04-24T12:42:26;1.70;;;0.17;;
42018;SDS011;27703;51.980;5.848;2023-04-24T12:44:56;0.73;;;0.10;;
42018;SDS011;27703;51.980;5.848;2023-04-24T12:47:26;4.07;;;0.20;;
42018;SDS011;27703;51.980;5.848;2023-04-24T12:49:52;1.45;;;0.15;;
42018;SDS011;27703;51.980;5.848;2023-04-24T12:52:22;1.92;;;0.22;;
42018;SDS011;27703;51.980;5.848;2023-04-24T12:54:48;2.90;;;0.23;;
42018;SDS011;27703;51.980;5.848;2023-04-24T12:57:15;2.17;;;0.10;;
42018;SDS011;27703;51.980;5.848;2023-04-24T12:59:41;7.68;;;0.22;;
42018;SDS011;27703;51.980;5.848;2023-04-24T13:02:06;1.52;;;0.17;;
42018;SDS011;27703;51.980;5.848;2023-04-24T13:04:33;1.48;;;0.20;;
42018;SDS011;27703;51.980;5.848;2023-04-24T13:06:59;3.20;;;0.13;;
42018;SDS011;27703;51.980;5.848;2023-04-24T13:09:25;1.02;;;0.20;;
42018;SDS011;27703;51.980;5.848;2023-04-24T13:11:50;2.88;;;0.20;;
42018;SDS011;27703;51.980;5.848;2023-04-24T13:14:16;2.22;;;0.10;;
42018;SDS011;27703;51.980;5.848;2023-04-24T13:16:41;1.88;;;0.15;;
42018;SDS011;27703;51.980;5.848;2023-04-24T13:19:07;4.05;;;0.20;;
42018;SDS011;27703;51.980;5.848;2023-04-24T13:21:32;3.72;;;0.25;;
42018;SDS011;27703;51.980;5.848;2023-04-24T13:23:58;3.97;;;0.20;;
42018;SDS011;27703;51.980;5.848;2023-04-24T13:26:23;4.15;;;0.30;;
42018;SDS011;27703;51.980;5.848;2023-04-24T13:28:49;1.27;;;0.20;;
42018;SDS011;27703;51.980;5.848;2023-04-24T13:31:15;5.35;;;0.47;;
42018;SDS011;27703;51.980;5.848;2023-04-24T13:33:41;3.28;;;0.50;;
42018;SDS011;27703;51.980;5.848;2023-04-24T13:36:06;7.50;;;0.50;;
42018;SDS011;27703;51.980;5.848;2023-04-24T13:38:32;3.88;;;0.25;;
42018;SDS011;27703;51.980;5.848;2023-04-24T13:40:58;6.53;;;0.52;;
42018;SDS011;27703;51.980;5.848;2023-04-24T13:43:23;3.38;;;0.30;;
42018;SDS011;27703;51.980;5.848;2023-04-24T13:45:49;4.60;;;0.40;;
42018;SDS011;27703;51.980;5.848;2023-04-24T13:48:14;4.18;;;0.73;;
42018;SDS011;27703;51.980;5.848;2023-04-24T13:50:40;3.58;;;0.38;;
42018;SDS011;27703;51.980;5.848;2023-04-24T13:53:07;5.72;;;0.40;;
42018;SDS011;27703;51.980;5.848;2023-04-24T13:55:33;7.30;;;0.73;;
42018;SDS011;27703;51.980;5.848;2023-04-24T13:57:59;5.90;;;0.75;;
42018;SDS011;27703;51.980;5.848;2023-04-24T14:00:26;4.15;;;0.40;;
42018;SDS011;27703;51.980;5.848;2023-04-24T14:02:52;2.85;;;0.30;;
42018;SDS011;27703;51.980;5.848;2023-04-24T14:05:17;4.95;;;0.57;;
42018;SDS011;27703;51.980;5.848;2023-04-24T14:07:43;6.50;;;0.30;;
42018;SDS011;27703;51.980;5.848;2023-04-24T14:10:09;4.30;;;0.47;;
42018;SDS011;27703;51.980;5.848;2023-04-24T14:12:35;5.22;;;0.52;;
42018;SDS011;27703;51.980;5.848;2023-04-24T14:15:00;8.20;;;0.57;;
42018;SDS011;27703;51.980;5.848;2023-04-24T14:17:26;6.80;;;0.40;;
42018;SDS011;27703;51.980;5.848;2023-04-24T14:19:52;3.28;;;0.40;;
42018;SDS011;27703;51.980;5.848;2023-04-24T14:22:21;7.60;;;0.65;;
42018;SDS011;27703;51.980;5.848;2023-04-24T14:24:46;5.90;;;0.60;;
42018;SDS011;27703;51.980;5.848;2023-04-24T14:27:12;6.68;;;0.35;;
42018;SDS011;27703;51.980;5.848;2023-04-24T14:29:37;6.72;;;0.55;;
42018;SDS011;27703;51.980;5.848;2023-04-24T14:32:03;6.68;;;0.70;;
42018;SDS011;27703;51.980;5.848;2023-04-24T14:34:28;3.35;;;0.40;;
42018;SDS011;27703;51.980;5.848;2023-04-24T14:36:54;3.95;;;0.45;;
42018;SDS011;27703;51.980;5.848;2023-04-24T14:39:20;7.75;;;0.68;;
42018;SDS011;27703;51.980;5.848;2023-04-24T14:41:46;3.72;;;1.15;;
42018;SDS011;27703;51.980;5.848;2023-04-24T14:44:11;7.90;;;0.70;;
42018;SDS011;27703;51.980;5.848;2023-04-24T14:46:37;4.05;;;0.40;;
42018;SDS011;27703;51.980;5.848;2023-04-24T14:49:02;5.90;;;0.60;;
42018;SDS011;27703;51.980;5.848;2023-04-24T14:51:28;5.30;;;0.70;;
42018;SDS011;27703;51.980;5.848;2023-04-24T14:53:54;7.00;;;0.40;;
42018;SDS011;27703;51.980;5.848;2023-04-24T14:56:20;4.30;;;0.75;;